Estación Meteorológica Peña el Pijo (Robertgarden) [ 10/16/18 04:32:56 CEST ]

Fecha Hora Presion(HPa) Temp (°C) Humedad % Rocio (°C) Viento ( m/s) Direccion Lluvia 1Hora(mm) Lluvia 24H(mm) LLuvia Total(mm)
2018-Apr-17 01:01:36 1012.300 5.7 77 2.0       2.07 203.05
2018-Apr-17 02:01:52 1012.700 5.3 79 1.9       2.07 203.05
2018-Apr-17 03:05:11 1012.400 5.0 80 1.8       2.07 203.05
2018-Apr-17 04:01:40 1012.700 4.8 81 1.8       0.51 203.05
2018-Apr-17 05:01:43 1012.700 3.9 82 1.1         203.05
2018-Apr-17 06:02:14 1012.700 3.6 82 0.8         203.05
2018-Apr-17 07:01:51 1012.800 3.0 83 0.4         203.05
2018-Apr-17 08:01:46 1013.200 2.6 84 0.1         203.05
2018-Apr-17 09:01:39 1013.800 6.3 85 3.9         203.05
2018-Apr-17 10:01:40 1013.800 12.6 71 7.5         203.05
2018-Apr-17 11:01:40 1014.000 17.3 50 6.8         203.05
2018-Apr-17 12:01:47 1014.300 19.6 39 5.2         203.05
2018-Apr-17 13:01:51 1014.000 20.4 38 5.5         203.05
2018-Apr-17 14:01:41 1013.400 21.7 34 5.1         203.05
2018-Apr-17 15:01:53 1013.300 22.6 32 5.0 1.4 SE     203.05
2018-Apr-17 16:01:56 1012.900 23.9 32 6.1         203.05
2018-Apr-17 17:01:57 1012.700 23.4 32 5.7         203.05
2018-Apr-17 18:01:45 1012.400 22.4 32 4.8         203.05
2018-Apr-17 19:01:45 1012.800 21.6 34 5.0         203.05
2018-Apr-17 20:01:42 1012.900 18.4 39 4.2         203.05
2018-Apr-17 21:01:40 1013.400 15.8 46 4.1         203.05
2018-Apr-17 22:01:48 1014.300 13.8 57 5.4         203.05
2018-Apr-17 23:01:38 1015.100 11.3 63 4.5         203.05

Temperatura Máxima:23°    Temperatura Mínima:
Presión Máxima:1015.100 Hpa    Presión Mínima:1012.300 Hpa


Volver